Time;durP1;ratioP1;P1;durP2;ratioP2;P2;SDS_P1;SDS_P2;PMS_P1;PMS_P2;Temp;Humidity;BMP_temperature;BMP_pressure;BME280_temperature;BME280_humidity;BME280_pressure;Samples;Min_cycle;Max_cycle;Signal;HPM_P1;HPM_P2
2022/07/06 00:00:38;;;;;;;2.08;1.75;;;23.40;68.80;;;;;;4972832;28;20214;-73
2022/07/06 00:03:04;;;;;;;1.70;1.60;;;23.30;69.30;;;;;;4989364;28;20194;-73
2022/07/06 00:05:29;;;;;;;1.60;1.50;;;23.40;68.80;;;;;;4988599;28;20272;-73
2022/07/06 00:07:55;;;;;;;1.80;1.70;;;23.30;68.70;;;;;;4956759;28;20313;-73
2022/07/06 00:10:21;;;;;;;1.60;1.50;;;23.30;68.60;;;;;;4973389;28;20210;-73
2022/07/06 00:12:47;;;;;;;1.85;1.70;;;23.30;68.50;;;;;;4953627;28;20289;-72
2022/07/06 00:15:12;;;;;;;1.60;1.50;;;23.40;68.60;;;;;;4954224;28;20210;-73
2022/07/06 00:17:38;;;;;;;1.80;1.70;;;23.30;68.60;;;;;;4953578;28;20182;-73
2022/07/06 00:20:05;;;;;;;1.63;1.50;;;23.40;68.70;;;;;;4953466;28;20210;-73
2022/07/06 00:22:30;;;;;;;1.55;1.45;;;23.30;68.60;;;;;;4954467;28;20205;-73
2022/07/06 00:24:56;;;;;;;1.40;1.30;;;23.30;68.50;;;;;;4955761;28;20190;-73
2022/07/06 00:27:22;;;;;;;1.63;1.52;;;23.40;68.60;;;;;;4964597;28;20649;-73
2022/07/06 00:29:48;;;;;;;1.80;1.70;;;23.30;68.60;;;;;;4972614;28;20693;-73
2022/07/06 00:32:14;;;;;;;1.63;1.52;;;23.30;68.50;;;;;;4972598;28;20188;-73
2022/07/06 00:34:41;;;;;;;1.52;1.42;;;23.30;68.50;;;;;;4988145;28;20217;-73
2022/07/06 00:37:07;;;;;;;1.63;1.52;;;23.30;68.50;;;;;;4974528;28;20280;-72
2022/07/06 00:39:34;;;;;;;1.65;1.55;;;23.30;68.50;;;;;;4976445;28;20220;-73
2022/07/06 00:42:00;;;;;;;1.67;1.58;;;23.30;68.60;;;;;;4992447;28;20185;-73
2022/07/06 00:44:26;;;;;;;1.63;1.52;;;23.30;68.50;;;;;;4975806;28;20272;-73
2022/07/06 00:46:52;;;;;;;1.92;1.80;;;23.30;68.50;;;;;;4976391;28;20662;-73
2022/07/06 00:52:03;;;;;;;1.80;1.65;;;23.30;68.60;;;;;;4992453;28;20185;-73
2022/07/06 00:54:32;;;;;;;2.15;1.40;;;23.30;68.50;;;;;;4984054;28;20187;-73
2022/07/06 00:56:58;;;;;;;1.77;1.67;;;23.30;68.50;;;;;;4967315;28;20193;-73
2022/07/06 00:59:26;;;;;;;1.45;1.35;;;23.30;68.50;;;;;;4992470;28;20205;-73
2022/07/06 01:01:52;;;;;;;1.73;1.60;;;23.30;68.50;;;;;;4976018;28;20649;-73
2022/07/06 01:04:18;;;;;;;1.60;1.50;;;23.30;68.50;;;;;;4975286;28;20182;-73
2022/07/06 01:06:46;;;;;;;1.75;1.58;;;23.30;68.50;;;;;;4992297;28;20182;-73
2022/07/06 01:09:12;;;;;;;1.50;1.40;;;23.30;68.50;;;;;;4975433;28;20628;-73
2022/07/06 01:11:39;;;;;;;1.60;1.50;;;23.30;68.50;;;;;;4975617;28;20192;-73
2022/07/06 01:14:05;;;;;;;1.48;1.33;;;23.20;68.40;;;;;;4959673;28;20185;-73
2022/07/06 01:16:32;;;;;;;1.50;1.40;;;23.30;68.50;;;;;;4959682;28;20182;-73
2022/07/06 01:18:57;;;;;;;1.60;1.50;;;23.20;68.40;;;;;;4976026;28;20228;-72
2022/07/06 01:21:23;;;;;;;1.40;1.30;;;23.30;68.50;;;;;;4959365;28;20205;-74
2022/07/06 01:23:49;;;;;;;1.60;1.50;;;23.30;68.50;;;;;;4959250;28;20181;-73
2022/07/06 01:26:19;;;;;;;1.58;1.48;;;23.20;68.40;;;;;;4980974;28;20719;-73
2022/07/06 01:28:48;;;;;;;1.50;1.40;;;23.20;68.30;;;;;;4959355;28;20276;-73
2022/07/06 01:31:23;;;;;;;1.70;1.60;;;23.20;68.40;;;;;;4959361;28;20206;-73
2022/07/06 01:33:53;;;;;;;2.00;1.63;;;23.30;68.50;;;;;;4959310;28;20185;-73
2022/07/06 01:36:21;;;;;;;1.50;1.40;;;23.20;68.40;;;;;;4975329;28;20190;-73
2022/07/06 01:38:53;;;;;;;1.80;1.42;;;23.20;68.40;;;;;;4975658;28;20197;-73
2022/07/06 01:41:20;;;;;;;1.60;1.50;;;23.20;68.40;;;;;;4958948;28;20209;-73
2022/07/06 01:43:46;;;;;;;1.45;1.35;;;23.20;68.40;;;;;;4991183;28;20210;-73
2022/07/06 01:46:13;;;;;;;1.52;1.42;;;23.20;68.40;;;;;;4975584;28;20225;-73
2022/07/06 01:48:39;;;;;;;1.40;1.30;;;23.20;68.40;;;;;;4990255;28;20712;-73
2022/07/06 01:51:06;;;;;;;1.33;1.23;;;23.20;68.40;;;;;;4975111;28;20713;-73
2022/07/06 01:53:33;;;;;;;1.40;1.30;;;23.20;68.40;;;;;;4990865;28;20192;-72
2022/07/06 01:55:59;;;;;;;1.38;1.27;;;23.20;68.40;;;;;;4982867;28;20184;-73
2022/07/06 01:58:26;;;;;;;1.50;1.40;;;23.20;68.40;;;;;;4960616;28;20281;-73
2022/07/06 02:00:52;;;;;;;1.70;1.60;;;23.20;68.40;;;;;;4956998;28;20301;-73
2022/07/06 02:03:18;;;;;;;1.80;1.63;;;23.20;68.40;;;;;;4955617;28;20229;-73
2022/07/06 02:05:44;;;;;;;1.60;1.50;;;23.20;68.40;;;;;;4971351;28;20230;-73
2022/07/06 02:08:09;;;;;;;2.78;1.52;;;23.20;68.40;;;;;;4939306;28;20197;-74
2022/07/06 02:10:35;;;;;;;1.40;1.30;;;23.20;68.40;;;;;;4937557;29;20207;-73
2022/07/06 02:13:01;;;;;;;1.67;1.55;;;23.20;68.40;;;;;;4936740;28;20188;-73
2022/07/06 02:15:27;;;;;;;1.88;1.65;;;23.20;68.40;;;;;;4960343;28;20198;-74
2022/07/06 02:17:54;;;;;;;1.25;1.20;;;23.20;68.40;;;;;;4948233;28;20181;-74
2022/07/06 02:20:22;;;;;;;1.50;1.40;;;23.10;68.20;;;;;;4958712;28;20210;-73
2022/07/06 02:22:48;;;;;;;1.75;1.65;;;23.20;68.40;;;;;;4974855;28;20198;-74
2022/07/06 02:25:14;;;;;;;1.40;1.30;;;23.10;68.20;;;;;;4968887;28;20200;-74
2022/07/06 02:27:40;;;;;;;1.50;1.40;;;23.20;68.40;;;;;;4966196;28;20256;-73
2022/07/06 02:30:09;;;;;;;1.48;1.38;;;23.10;68.20;;;;;;4974592;28;20245;-73
2022/07/06 02:32:36;;;;;;;1.30;1.20;;;23.10;68.30;;;;;;4974609;28;20182;-73
2022/07/06 02:35:02;;;;;;;1.30;1.20;;;23.20;68.40;;;;;;4957798;28;20182;-73
2022/07/06 02:37:29;;;;;;;1.23;1.20;;;23.10;68.10;;;;;;4974950;28;20193;-73
2022/07/06 02:39:55;;;;;;;1.50;1.30;;;23.20;68.40;;;;;;4958601;28;20209;-73
2022/07/06 02:42:21;;;;;;;1.50;1.40;;;23.10;68.30;;;;;;4974257;28;20190;-73
2022/07/06 02:44:46;;;;;;;1.40;1.30;;;23.10;68.20;;;;;;4973786;28;20269;-73
2022/07/06 02:47:12;;;;;;;1.27;1.20;;;23.10;68.20;;;;;;4974189;28;20190;-73
2022/07/06 02:49:38;;;;;;;1.27;1.20;;;23.10;68.20;;;;;;4958146;28;20232;-73
2022/07/06 02:52:04;;;;;;;1.55;1.45;;;23.20;68.40;;;;;;4958279;28;20186;-73
2022/07/06 02:54:31;;;;;;;1.48;1.38;;;23.10;68.20;;;;;;4969115;28;20194;-73
2022/07/06 02:56:57;;;;;;;1.52;1.42;;;23.20;68.40;;;;;;4964771;28;20182;-73
2022/07/06 02:59:24;;;;;;;1.88;1.38;;;23.10;68.10;;;;;;4973764;28;20600;-73
2022/07/06 03:01:49;;;;;;;1.40;1.30;;;23.10;68.10;;;;;;4974706;28;20190;-73
2022/07/06 03:04:16;;;;;;;1.60;1.50;;;23.20;68.20;;;;;;4975464;28;20615;-73
2022/07/06 03:06:44;;;;;;;1.65;1.55;;;23.10;68.00;;;;;;4975083;28;20182;-73
2022/07/06 03:09:10;;;;;;;1.50;1.40;;;23.10;68.70;;;;;;4976901;28;20324;-72
2022/07/06 03:11:37;;;;;;;1.50;1.40;;;23.10;68.10;;;;;;4974279;28;20184;-73
2022/07/06 03:14:05;;;;;;;1.45;1.33;;;23.10;68.20;;;;;;4973734;28;20182;-72
2022/07/06 03:16:33;;;;;;;1.35;1.13;;;23.10;68.10;;;;;;4958163;28;20243;-73
2022/07/06 03:18:59;;;;;;;1.48;1.38;;;23.10;68.20;;;;;;4957659;28;20229;-73
2022/07/06 03:21:25;;;;;;;1.50;1.40;;;23.10;68.20;;;;;;4989873;28;20185;-72
2022/07/06 03:23:51;;;;;;;1.40;1.30;;;23.10;68.10;;;;;;4973571;28;20170;-73
2022/07/06 03:26:17;;;;;;;1.67;1.58;;;23.10;68.10;;;;;;4957399;28;20182;-73
2022/07/06 03:28:43;;;;;;;1.52;1.30;;;23.10;68.10;;;;;;4948812;28;20206;-73
2022/07/06 03:31:10;;;;;;;1.20;1.10;;;23.10;68.10;;;;;;4951384;28;20226;-73
2022/07/06 03:33:36;;;;;;;1.00;1.00;;;23.10;68.10;;;;;;4955199;28;20638;-73
2022/07/06 03:36:02;;;;;;;1.55;1.15;;;23.10;68.10;;;;;;4953960;29;20222;-73
2022/07/06 03:38:29;;;;;;;1.13;1.13;;;23.10;68.00;;;;;;4954059;28;20265;-73
2022/07/06 03:40:55;;;;;;;1.15;1.15;;;23.10;68.00;;;;;;4954304;28;20293;-73
2022/07/06 03:43:21;;;;;;;1.40;1.30;;;23.10;68.10;;;;;;4937918;28;20183;-73
2022/07/06 03:45:47;;;;;;;1.50;1.40;;;23.10;68.00;;;;;;4953430;29;20186;-73
2022/07/06 03:48:13;;;;;;;1.30;1.20;;;23.10;68.10;;;;;;4954127;29;20178;-73
2022/07/06 03:50:40;;;;;;;1.23;1.13;;;23.10;68.00;;;;;;4954015;28;20285;-73
2022/07/06 03:53:07;;;;;;;1.23;1.20;;;23.10;68.00;;;;;;4953660;28;20241;-73
2022/07/06 03:55:34;;;;;;;2.40;1.50;;;23.00;67.90;;;;;;4961181;28;20209;-73
2022/07/06 03:58:03;;;;;;;1.60;1.50;;;23.00;67.90;;;;;;4973128;28;20584;-73
2022/07/06 04:00:29;;;;;;;1.60;1.50;;;23.10;68.00;;;;;;4973003;28;20217;-73
2022/07/06 04:03:01;;;;;;;1.40;1.30;;;23.00;67.80;;;;;;4972994;28;20182;-73
2022/07/06 04:05:30;;;;;;;1.33;1.23;;;23.10;68.00;;;;;;4972124;28;20283;-73
2022/07/06 04:07:57;;;;;;;1.50;1.40;;;23.00;68.00;;;;;;4972871;28;20716;-73
2022/07/06 04:10:31;;;;;;;1.33;1.30;;;23.10;68.10;;;;;;4972152;28;20225;-73
2022/07/06 04:12:57;;;;;;;1.58;1.48;;;23.10;68.00;;;;;;4972255;28;20186;-74
2022/07/06 04:15:23;;;;;;;1.30;1.20;;;23.00;68.70;;;;;;4972210;28;20186;-73
2022/07/06 04:17:52;;;;;;;1.30;1.20;;;23.00;67.90;;;;;;4972524;28;20193;-73
2022/07/06 04:20:22;;;;;;;1.30;1.20;;;23.00;67.90;;;;;;4972526;28;20213;-73
2022/07/06 04:22:50;;;;;;;1.05;1.05;;;23.00;67.80;;;;;;4956823;28;20196;-73
2022/07/06 04:25:16;;;;;;;1.67;1.13;;;23.00;68.00;;;;;;4972552;28;20240;-72
2022/07/06 04:27:42;;;;;;;1.70;1.60;;;23.00;68.00;;;;;;4964465;28;20193;-73
2022/07/06 04:30:10;;;;;;;1.33;1.33;;;23.00;67.80;;;;;;4972341;28;20255;-73
2022/07/06 04:32:36;;;;;;;1.38;1.30;;;23.10;68.00;;;;;;4972829;28;20192;-73
2022/07/06 04:35:05;;;;;;;1.38;1.27;;;23.10;67.90;;;;;;4988277;28;20189;-73
2022/07/06 04:37:31;;;;;;;1.40;1.25;;;23.00;67.80;;;;;;4988695;28;20245;-73
2022/07/06 04:39:57;;;;;;;1.50;1.40;;;23.00;67.90;;;;;;4972923;28;20212;-73
2022/07/06 04:42:24;;;;;;;1.40;1.33;;;23.10;67.90;;;;;;4972225;28;20185;-73
2022/07/06 04:44:51;;;;;;;1.27;1.17;;;23.00;67.60;;;;;;4972036;28;20189;-73
2022/07/06 04:47:17;;;;;;;1.33;1.33;;;23.00;67.60;;;;;;4972330;28;20196;-73
2022/07/06 04:49:44;;;;;;;1.58;1.48;;;23.00;67.50;;;;;;4972043;28;20244;-74
2022/07/06 04:52:10;;;;;;;1.40;1.30;;;23.00;67.50;;;;;;4972566;28;20277;-74
2022/07/06 04:54:36;;;;;;;1.40;1.40;;;23.10;67.50;;;;;;4972938;28;20674;-73
2022/07/06 04:57:03;;;;;;;1.50;1.40;;;23.00;67.20;;;;;;4986719;28;20186;-74
2022/07/06 04:59:30;;;;;;;1.83;1.50;;;23.00;67.20;;;;;;4973428;28;20220;-74
2022/07/06 05:01:59;;;;;;;1.40;1.30;;;23.00;67.10;;;;;;4957678;28;20253;-74
2022/07/06 05:04:25;;;;;;;1.60;1.50;;;23.00;67.00;;;;;;4972247;28;20757;-73
2022/07/06 05:06:51;;;;;;;1.52;1.42;;;23.00;67.00;;;;;;4956080;28;20196;-74
2022/07/06 05:09:17;;;;;;;1.60;1.50;;;23.00;66.80;;;;;;4971861;28;20213;-73
2022/07/06 05:11:45;;;;;;;1.70;1.60;;;23.00;66.80;;;;;;4972397;28;20193;-73
2022/07/06 05:14:11;;;;;;;1.45;1.35;;;23.00;66.80;;;;;;4971958;28;20209;-74
2022/07/06 05:16:37;;;;;;;1.25;1.20;;;23.00;66.70;;;;;;4956121;28;20181;-74
2022/07/06 05:19:04;;;;;;;1.63;1.52;;;23.00;66.70;;;;;;4956413;28;20196;-72
2022/07/06 05:21:30;;;;;;;1.70;1.60;;;23.00;66.80;;;;;;4972271;28;20185;-73
2022/07/06 05:23:56;;;;;;;1.60;1.50;;;23.00;66.80;;;;;;4934837;28;20195;-74
2022/07/06 05:26:22;;;;;;;1.70;1.60;;;23.00;66.80;;;;;;4964225;28;20190;-74
2022/07/06 05:28:48;;;;;;;1.52;1.42;;;23.00;66.80;;;;;;4955760;28;20203;-74
2022/07/06 05:31:17;;;;;;;1.65;1.55;;;23.00;66.70;;;;;;4924538;29;20237;-74
2022/07/06 05:33:43;;;;;;;1.70;1.60;;;23.00;66.80;;;;;;4953435;28;20193;-74
2022/07/06 05:36:09;;;;;;;2.00;1.30;;;23.00;66.80;;;;;;4955717;28;20229;-73
2022/07/06 05:38:35;;;;;;;1.40;1.40;;;23.00;66.80;;;;;;4938447;29;20222;-74
2022/07/06 05:41:01;;;;;;;2.08;1.65;;;22.90;66.70;;;;;;4957512;28;20242;-73
2022/07/06 05:43:27;;;;;;;1.42;1.33;;;23.00;66.80;;;;;;4956054;29;20191;-73
2022/07/06 05:45:55;;;;;;;1.60;1.50;;;23.00;66.90;;;;;;4955925;28;20186;-73
2022/07/06 05:51:07;;;;;;;1.58;1.48;;;23.00;66.90;;;;;;4955782;29;20258;-73
2022/07/06 05:53:33;;;;;;;1.67;1.50;;;23.00;66.80;;;;;;4971926;28;20191;-73
2022/07/06 05:55:59;;;;;;;2.00;1.70;;;22.90;66.80;;;;;;4965887;28;20193;-72
2022/07/06 05:58:27;;;;;;;1.88;1.60;;;23.00;66.70;;;;;;4960068;28;20659;-72
2022/07/06 06:00:54;;;;;;;1.48;1.38;;;23.00;66.70;;;;;;4963231;28;20700;-73
2022/07/06 06:03:20;;;;;;;1.65;1.55;;;23.00;66.60;;;;;;4958934;28;20178;-72
2022/07/06 06:05:48;;;;;;;1.63;1.52;;;22.90;66.40;;;;;;4958266;28;20182;-71
2022/07/06 06:08:16;;;;;;;1.55;1.45;;;22.90;66.40;;;;;;4936018;29;20191;-72
2022/07/06 06:10:43;;;;;;;1.65;1.38;;;23.00;66.60;;;;;;4936377;29;20339;-72
2022/07/06 06:13:12;;;;;;;1.55;1.42;;;23.00;66.60;;;;;;4952169;28;20182;-72
2022/07/06 06:15:40;;;;;;;1.70;1.60;;;23.00;66.60;;;;;;4920073;29;20183;-71
2022/07/06 06:18:06;;;;;;;1.60;1.50;;;23.00;66.60;;;;;;4936766;29;20270;-72
2022/07/06 06:20:32;;;;;;;2.40;1.60;;;23.00;66.70;;;;;;4935883;29;20350;-72
2022/07/06 06:22:59;;;;;;;1.58;1.48;;;23.00;66.70;;;;;;4936073;29;20191;-72
2022/07/06 06:25:33;;;;;;;1.90;1.80;;;23.00;66.70;;;;;;4953922;28;20193;-72
2022/07/06 06:27:59;;;;;;;1.70;1.58;;;23.00;66.60;;;;;;4982534;28;20186;-71
2022/07/06 06:30:26;;;;;;;1.50;1.40;;;23.00;66.70;;;;;;4975662;28;20224;-72
2022/07/06 06:33:07;;;;;;;3.15;1.80;;;23.00;66.60;;;;;;4974884;28;20197;-72
2022/07/06 06:35:33;;;;;;;1.75;1.65;;;23.00;66.70;;;;;;4973393;28;20186;-72
2022/07/06 06:37:59;;;;;;;1.60;1.50;;;23.00;66.50;;;;;;4975601;28;20181;-72
2022/07/06 06:40:25;;;;;;;1.85;1.55;;;23.00;66.50;;;;;;4974323;28;20214;-72
2022/07/06 06:42:50;;;;;;;2.10;1.55;;;23.00;66.50;;;;;;4974369;28;20225;-72
2022/07/06 06:45:16;;;;;;;1.75;1.65;;;23.00;66.50;;;;;;4973780;28;20562;-72
2022/07/06 06:47:42;;;;;;;1.92;1.70;;;23.00;66.40;;;;;;4974467;28;20244;-72
2022/07/06 06:50:08;;;;;;;1.52;1.40;;;23.00;66.50;;;;;;4973979;28;20227;-72
2022/07/06 06:52:34;;;;;;;1.80;1.70;;;23.00;66.30;;;;;;4975592;28;20265;-72
2022/07/06 06:55:00;;;;;;;1.88;1.75;;;23.00;66.40;;;;;;4963038;28;20189;-72
2022/07/06 06:57:25;;;;;;;2.35;1.70;;;23.00;67.30;;;;;;4966128;28;20182;-72
2022/07/06 06:59:51;;;;;;;3.60;1.80;;;23.00;66.50;;;;;;4976030;28;20264;-72
2022/07/06 07:02:17;;;;;;;1.70;1.60;;;23.00;66.50;;;;;;4975200;28;20193;-72
2022/07/06 07:04:43;;;;;;;1.70;1.60;;;23.00;66.50;;;;;;4978369;28;20185;-72
2022/07/06 07:07:09;;;;;;;1.67;1.58;;;23.10;66.50;;;;;;4977353;28;20268;-72
2022/07/06 07:09:35;;;;;;;2.38;1.55;;;23.10;66.50;;;;;;4973104;28;20276;-71
2022/07/06 07:12:01;;;;;;;1.77;1.67;;;23.00;66.40;;;;;;4957749;28;20186;-72
2022/07/06 07:14:27;;;;;;;1.67;1.58;;;23.10;66.60;;;;;;4973433;28;20186;-71
2022/07/06 07:16:53;;;;;;;1.55;1.45;;;23.10;66.50;;;;;;4989749;28;20192;-71
2022/07/06 07:19:19;;;;;;;1.70;1.60;;;23.10;66.40;;;;;;4973674;28;20261;-72
2022/07/06 07:21:44;;;;;;;1.65;1.55;;;23.10;66.50;;;;;;4989938;28;20228;-72
2022/07/06 07:24:10;;;;;;;1.52;1.42;;;23.00;66.30;;;;;;4972211;28;20235;-72
2022/07/06 07:26:36;;;;;;;1.83;1.73;;;23.00;66.30;;;;;;4943009;28;20218;-72
2022/07/06 07:29:03;;;;;;;2.50;1.63;;;23.00;66.40;;;;;;4973135;28;20218;-71
2022/07/06 07:31:29;;;;;;;1.70;1.60;;;23.00;66.30;;;;;;4989677;28;20197;-72
2022/07/06 07:33:56;;;;;;;2.00;1.90;;;23.00;66.40;;;;;;4957411;28;20608;-72
2022/07/06 07:36:23;;;;;;;2.53;1.65;;;23.10;66.50;;;;;;4972573;28;20200;-72
2022/07/06 07:38:50;;;;;;;1.67;1.55;;;23.10;66.40;;;;;;4989661;28;20194;-72
2022/07/06 07:41:16;;;;;;;2.17;1.60;;;23.10;66.30;;;;;;4973224;28;20209;-72
2022/07/06 07:43:43;;;;;;;1.80;1.70;;;23.10;66.30;;;;;;4972940;28;20197;-72
2022/07/06 07:46:09;;;;;;;2.45;1.83;;;23.10;66.40;;;;;;4972123;28;20182;-72
2022/07/06 07:48:35;;;;;;;1.73;1.63;;;23.10;66.30;;;;;;4973253;28;20189;-72
2022/07/06 07:51:01;;;;;;;1.70;1.60;;;23.10;66.30;;;;;;4972801;28;20208;-72
2022/07/06 07:53:27;;;;;;;1.60;1.50;;;23.10;66.10;;;;;;4974207;28;20185;-72
2022/07/06 07:55:53;;;;;;;1.20;1.10;;;23.10;66.20;;;;;;4948624;28;20181;-72
2022/07/06 07:58:19;;;;;;;2.00;1.55;;;23.10;66.30;;;;;;4959092;28;20734;-72
2022/07/06 08:00:45;;;;;;;1.85;1.73;;;23.20;66.30;;;;;;4918513;29;20302;-72
2022/07/06 08:03:12;;;;;;;3.13;1.67;;;23.10;66.30;;;;;;4934367;28;20620;-72
2022/07/06 08:05:38;;;;;;;2.08;1.60;;;23.10;66.30;;;;;;4957762;28;20217;-72
2022/07/06 08:08:05;;;;;;;1.92;1.65;;;23.10;66.30;;;;;;4988839;28;20190;-72
2022/07/06 08:10:31;;;;;;;1.85;1.58;;;23.20;66.50;;;;;;4972314;28;20217;-72
2022/07/06 08:12:57;;;;;;;1.55;1.45;;;23.20;66.40;;;;;;4972606;28;20186;-72
2022/07/06 08:15:23;;;;;;;1.80;1.70;;;23.20;66.40;;;;;;4972287;28;20193;-72
2022/07/06 08:17:48;;;;;;;2.17;2.00;;;23.10;66.20;;;;;;4956726;28;20214;-72
2022/07/06 08:20:14;;;;;;;2.13;1.60;;;23.10;66.30;;;;;;4972585;28;20209;-72
2022/07/06 08:22:42;;;;;;;1.60;1.50;;;23.10;66.10;;;;;;4956818;28;20320;-72
2022/07/06 08:25:09;;;;;;;1.77;1.67;;;23.10;66.00;;;;;;4950375;28;20209;-72
2022/07/06 08:27:35;;;;;;;2.63;1.90;;;23.10;66.20;;;;;;4964404;28;20189;-72
2022/07/06 08:30:03;;;;;;;1.63;1.52;;;23.20;65.90;;;;;;4972243;28;20272;-72
2022/07/06 08:32:29;;;;;;;2.17;1.98;;;23.20;65.90;;;;;;4972306;28;20228;-72
2022/07/06 08:34:54;;;;;;;2.15;2.00;;;23.20;65.80;;;;;;4972234;28;20205;-72
2022/07/06 08:37:20;;;;;;;2.28;1.70;;;23.20;65.90;;;;;;4988310;28;20182;-72
2022/07/06 08:39:46;;;;;;;2.20;2.00;;;23.20;66.10;;;;;;4972251;28;20727;-72
2022/07/06 08:42:15;;;;;;;3.63;1.83;;;23.30;66.30;;;;;;4972016;28;20215;-72
2022/07/06 08:44:43;;;;;;;1.60;1.50;;;23.30;66.30;;;;;;4971896;28;20186;-72
2022/07/06 08:47:10;;;;;;;2.05;1.85;;;23.30;66.30;;;;;;4988439;28;20185;-71
2022/07/06 08:49:42;;;;;;;1.70;1.60;;;23.30;66.30;;;;;;4972849;28;20860;-72
2022/07/06 08:52:09;;;;;;;1.60;1.50;;;23.30;66.20;;;;;;4955926;28;20288;-72
2022/07/06 08:54:34;;;;;;;1.70;1.60;;;23.30;66.40;;;;;;4979672;28;20203;-72
2022/07/06 08:57:03;;;;;;;1.90;1.80;;;23.30;66.40;;;;;;4980480;28;20186;-72
2022/07/06 08:59:29;;;;;;;1.85;1.75;;;23.30;66.50;;;;;;4975942;28;20256;-72
2022/07/06 09:01:55;;;;;;;1.40;1.35;;;23.30;66.40;;;;;;4959854;28;20190;-72
2022/07/06 09:04:22;;;;;;;2.53;2.10;;;23.30;66.40;;;;;;4991668;28;20190;-72
2022/07/06 09:06:50;;;;;;;1.73;1.63;;;23.40;66.40;;;;;;4975615;28;20185;-72
2022/07/06 09:09:22;;;;;;;2.25;1.70;;;23.30;66.40;;;;;;4959505;28;20284;-72
2022/07/06 09:11:49;;;;;;;1.95;1.70;;;23.30;66.20;;;;;;4977120;28;20169;-72
2022/07/06 09:14:15;;;;;;;1.90;1.55;;;23.40;66.40;;;;;;4959264;28;20195;-72
2022/07/06 09:16:42;;;;;;;1.77;1.67;;;23.40;66.50;;;;;;4975721;28;20185;-72
2022/07/06 09:19:11;;;;;;;1.70;1.60;;;23.40;66.30;;;;;;4991799;28;20194;-72
2022/07/06 09:21:38;;;;;;;2.15;1.75;;;23.40;66.40;;;;;;4975516;28;20244;-72
2022/07/06 09:24:12;;;;;;;1.80;1.70;;;23.40;66.50;;;;;;4974244;28;20186;-72
2022/07/06 09:26:41;;;;;;;1.73;1.63;;;23.40;66.40;;;;;;4964289;28;20202;-72
2022/07/06 09:29:07;;;;;;;1.70;1.52;;;23.40;66.50;;;;;;4955832;29;20221;-72
2022/07/06 09:31:33;;;;;;;2.13;1.80;;;23.40;67.40;;;;;;4957501;28;20621;-72
2022/07/06 09:34:12;;;;;;;1.63;1.52;;;23.40;66.50;;;;;;4972190;28;20190;-72
2022/07/06 09:36:48;;;;;;;2.25;1.73;;;23.40;66.50;;;;;;4971949;28;20170;-72
2022/07/06 09:39:23;;;;;;;1.85;1.73;;;23.40;66.40;;;;;;4972105;28;20265;-72
2022/07/06 09:42:03;;;;;;;1.70;1.60;;;23.40;66.50;;;;;;4955921;28;20194;-72
2022/07/06 09:44:31;;;;;;;2.20;2.08;;;23.40;66.30;;;;;;4971597;28;20175;-72
2022/07/06 09:47:08;;;;;;;2.15;1.70;;;23.40;66.40;;;;;;4955917;28;20186;-72
2022/07/06 09:49:35;;;;;;;1.70;1.60;;;23.40;66.50;;;;;;4937028;29;20218;-72
2022/07/06 09:52:04;;;;;;;1.88;1.70;;;23.40;66.50;;;;;;4936540;29;20274;-72
2022/07/06 09:54:32;;;;;;;1.70;1.60;;;23.40;66.40;;;;;;4936132;29;20187;-72
2022/07/06 09:56:58;;;;;;;1.80;1.70;;;23.40;66.40;;;;;;4949953;28;20189;-71
2022/07/06 09:59:26;;;;;;;1.60;1.50;;;23.40;66.50;;;;;;4974655;28;20205;-72
2022/07/06 10:01:58;;;;;;;1.55;1.45;;;23.40;66.50;;;;;;4983579;28;20245;-72
2022/07/06 10:04:26;;;;;;;1.60;1.50;;;23.40;66.50;;;;;;4955336;28;20547;-72
2022/07/06 10:06:54;;;;;;;1.80;1.70;;;23.40;66.60;;;;;;4956843;28;20201;-72
2022/07/06 10:09:22;;;;;;;1.70;1.60;;;23.40;66.70;;;;;;4954327;28;20238;-72
2022/07/06 10:11:55;;;;;;;1.60;1.50;;;23.40;66.70;;;;;;4966600;28;20178;-72
2022/07/06 10:14:30;;;;;;;1.73;1.63;;;23.40;66.60;;;;;;4958299;28;20181;-72
2022/07/06 10:16:59;;;;;;;1.73;1.63;;;23.40;66.30;;;;;;4958827;28;20170;-72
2022/07/06 10:19:27;;;;;;;1.80;1.70;;;23.40;66.20;;;;;;4991108;28;20206;-72
2022/07/06 10:21:53;;;;;;;1.75;1.65;;;23.40;66.40;;;;;;4958499;28;20189;-71
2022/07/06 10:24:20;;;;;;;1.60;1.50;;;23.40;66.60;;;;;;4954901;28;20198;-71
2022/07/06 10:26:48;;;;;;;1.50;1.40;;;23.40;66.50;;;;;;4947082;28;20203;-72
2022/07/06 10:29:14;;;;;;;1.73;1.63;;;23.40;66.50;;;;;;4990657;28;20221;-72
2022/07/06 10:31:46;;;;;;;2.17;1.60;;;23.40;66.70;;;;;;4974773;28;20200;-72
2022/07/06 10:34:15;;;;;;;1.48;1.38;;;23.40;66.70;;;;;;4958615;28;20170;-72
2022/07/06 10:36:44;;;;;;;1.75;1.55;;;23.40;66.70;;;;;;4973707;28;20204;-72
2022/07/06 10:41:56;;;;;;;2.15;1.70;;;23.40;66.90;;;;;;4991050;28;20212;-72
2022/07/06 10:44:25;;;;;;;1.60;1.50;;;23.40;66.80;;;;;;4974937;28;20185;-72
2022/07/06 10:46:58;;;;;;;1.60;1.50;;;23.40;66.60;;;;;;4958365;28;20184;-72
2022/07/06 10:49:27;;;;;;;1.83;1.73;;;23.50;66.40;;;;;;4990714;28;20221;-72
2022/07/06 10:51:56;;;;;;;1.75;1.65;;;23.40;66.40;;;;;;4974469;28;20188;-72
2022/07/06 10:54:24;;;;;;;1.60;1.50;;;23.50;66.70;;;;;;4970311;28;20286;-71
2022/07/06 10:56:51;;;;;;;1.60;1.50;;;23.40;66.70;;;;;;4967448;28;20194;-72
2022/07/06 10:59:21;;;;;;;1.63;1.52;;;23.40;66.80;;;;;;4974763;28;20213;-72
2022/07/06 11:02:17;;;;;;;1.70;1.60;;;23.40;66.70;;;;;;4958073;28;20169;-72
2022/07/06 11:04:49;;;;;;;1.80;1.70;;;23.40;66.80;;;;;;4973850;28;20182;-72
2022/07/06 11:07:17;;;;;;;1.40;1.30;;;23.40;66.80;;;;;;4973782;28;20170;-72
2022/07/06 11:09:58;;;;;;;1.60;1.50;;;23.40;66.90;;;;;;4973557;28;20225;-72
2022/07/06 11:12:25;;;;;;;1.73;1.63;;;23.40;66.70;;;;;;4974215;28;20177;-72
2022/07/06 11:14:52;;;;;;;1.60;1.50;;;23.50;66.90;;;;;;4973361;28;20182;-70
2022/07/06 11:17:19;;;;;;;1.85;1.70;;;23.50;66.90;;;;;;4990537;28;20189;-73
2022/07/06 11:19:50;;;;;;;1.60;1.50;;;23.50;66.90;;;;;;4974309;28;20208;-73
2022/07/06 11:22:20;;;;;;;1.80;1.70;;;23.50;66.60;;;;;;4990309;28;20194;-74
2022/07/06 11:24:47;;;;;;;2.38;1.52;;;23.50;66.60;;;;;;4968249;28;20266;-73
2022/07/06 11:27:14;;;;;;;3.45;1.67;;;23.50;66.80;;;;;;4965769;28;20676;-72
2022/07/06 11:29:40;;;;;;;1.70;1.60;;;23.50;67.10;;;;;;4957650;28;20346;-72
2022/07/06 11:32:09;;;;;;;1.52;1.42;;;23.50;66.80;;;;;;4973729;28;20257;-72
2022/07/06 11:34:42;;;;;;;2.20;1.67;;;23.50;66.70;;;;;;4974412;28;20185;-71
2022/07/06 11:37:12;;;;;;;1.88;1.77;;;23.50;67.10;;;;;;4974605;28;20169;-73
2022/07/06 11:39:41;;;;;;;1.58;1.48;;;23.50;66.90;;;;;;4974555;28;20209;-72
2022/07/06 11:42:09;;;;;;;3.70;1.75;;;23.50;67.20;;;;;;4973798;28;20278;-71
2022/07/06 11:44:36;;;;;;;1.70;1.60;;;23.50;67.10;;;;;;4972686;28;20189;-71
2022/07/06 11:47:04;;;;;;;1.60;1.50;;;23.50;66.90;;;;;;4973361;28;20190;-72
2022/07/06 11:49:32;;;;;;;1.70;1.60;;;23.50;67.10;;;;;;4972994;28;20228;-72
2022/07/06 11:51:58;;;;;;;1.73;1.63;;;23.50;67.10;;;;;;4956319;28;20193;-72
2022/07/06 11:54:25;;;;;;;1.50;1.40;;;23.50;66.70;;;;;;4953661;29;20206;-72
2022/07/06 11:56:53;;;;;;;2.47;1.55;;;23.50;66.90;;;;;;4962921;28;20195;-72
2022/07/06 11:59:34;;;;;;;3.17;1.60;;;23.50;66.80;;;;;;4951814;28;20584;-71
2022/07/06 12:02:12;;;;;;;1.83;1.73;;;23.50;66.60;;;;;;4953023;29;20289;-72
2022/07/06 12:04:43;;;;;;;1.45;1.45;;;23.50;66.40;;;;;;4969196;28;20187;-71
2022/07/06 12:07:14;;;;;;;1.58;1.48;;;23.50;66.30;;;;;;4937388;29;20198;-71
2022/07/06 12:09:46;;;;;;;2.05;1.70;;;23.50;66.60;;;;;;4954298;28;20261;-72
2022/07/06 12:12:13;;;;;;;1.58;1.48;;;23.50;66.90;;;;;;4969701;28;20183;-71
2022/07/06 12:14:41;;;;;;;1.60;1.50;;;23.50;67.30;;;;;;4968897;28;20257;-71
2022/07/06 12:17:14;;;;;;;1.60;1.50;;;23.50;67.30;;;;;;4969422;28;20237;-71
2022/07/06 12:19:41;;;;;;;1.80;1.55;;;23.50;67.50;;;;;;4953434;29;20206;-72
2022/07/06 12:22:08;;;;;;;1.73;1.63;;;23.50;67.40;;;;;;4953035;28;20250;-72
2022/07/06 12:24:37;;;;;;;3.95;1.60;;;23.50;67.10;;;;;;4949514;29;20191;-72
2022/07/06 12:27:33;;;;;;;1.85;1.75;;;23.50;67.40;;;;;;4953472;28;20186;-72
2022/07/06 12:30:10;;;;;;;1.70;1.60;;;23.50;67.20;;;;;;4950563;28;20237;-70
2022/07/06 12:32:36;;;;;;;1.60;1.50;;;23.50;67.30;;;;;;4933539;29;20194;-72
2022/07/06 12:35:08;;;;;;;1.60;1.50;;;23.50;67.40;;;;;;4933386;29;20254;-71
2022/07/06 12:37:34;;;;;;;1.75;1.60;;;23.60;67.30;;;;;;4935578;29;20175;-71
2022/07/06 12:40:01;;;;;;;1.70;1.58;;;23.50;67.40;;;;;;4950007;28;20218;-72
2022/07/06 12:42:28;;;;;;;2.17;1.98;;;23.50;67.20;;;;;;4950293;29;20714;-72
2022/07/06 12:44:54;;;;;;;1.45;1.35;;;23.50;67.10;;;;;;4934492;29;20199;-72
2022/07/06 12:47:23;;;;;;;1.88;1.70;;;23.50;67.10;;;;;;4932391;29;20202;-72
2022/07/06 12:50:08;;;;;;;1.80;1.70;;;23.50;67.10;;;;;;4939742;29;20230;-72
2022/07/06 12:52:36;;;;;;;1.98;1.88;;;23.50;67.50;;;;;;4934503;29;20230;-72
2022/07/06 12:55:03;;;;;;;3.22;1.70;;;23.50;67.30;;;;;;4934398;28;20211;-72
2022/07/06 12:57:47;;;;;;;2.03;1.70;;;23.50;67.00;;;;;;4980627;28;20232;-72